createdAt,value
2022-07-29T00:00:36.179Z,53.15
2022-07-29T00:03:03.750Z,53.01
2022-07-29T00:05:30.472Z,53.23
2022-07-29T00:07:57.058Z,53.29
2022-07-29T00:10:24.056Z,53.67
2022-07-29T00:12:50.622Z,53.60
2022-07-29T00:15:17.101Z,53.70
2022-07-29T00:17:43.667Z,53.80
2022-07-29T00:20:10.711Z,53.88
2022-07-29T00:22:40.670Z,54.05
2022-07-29T00:25:08.578Z,54.54
2022-07-29T00:27:36.629Z,54.07
2022-07-29T00:30:04.821Z,54.15
2022-07-29T00:32:31.459Z,53.67
2022-07-29T00:35:16.673Z,53.27
2022-07-29T00:37:43.343Z,53.57
2022-07-29T00:40:10.512Z,53.87
2022-07-29T00:42:48.324Z,53.98
2022-07-29T00:45:15.928Z,53.97
2022-07-29T00:47:42.503Z,54.19
2022-07-29T00:50:11.377Z,54.31
2022-07-29T00:52:40.625Z,54.20
2022-07-29T00:55:10.179Z,54.40
2022-07-29T00:57:37.561Z,54.30
2022-07-29T01:00:09.418Z,54.32
2022-07-29T01:02:36.185Z,54.60
2022-07-29T01:05:05.197Z,54.91
2022-07-29T01:07:34.664Z,55.18
2022-07-29T01:10:03.010Z,55.21
2022-07-29T01:12:34.569Z,54.66
2022-07-29T01:15:04.154Z,55.98
2022-07-29T01:17:37.307Z,56.39
2022-07-29T01:20:21.230Z,56.38
2022-07-29T01:23:03.557Z,56.39
2022-07-29T01:25:45.007Z,56.55
2022-07-29T01:28:30.258Z,56.87
2022-07-29T01:30:59.671Z,56.81
2022-07-29T01:33:46.210Z,57.14
2022-07-29T01:36:17.309Z,57.20
2022-07-29T01:38:49.503Z,56.98
2022-07-29T01:41:19.197Z,57.38
2022-07-29T01:43:54.612Z,57.57
2022-07-29T01:46:30.489Z,57.89
2022-07-29T01:49:12.375Z,57.36
2022-07-29T01:51:52.618Z,57.66
2022-07-29T01:54:43.927Z,57.41
2022-07-29T01:57:18.313Z,57.17
2022-07-29T01:59:47.491Z,57.29
2022-07-29T02:02:17.650Z,57.30
2022-07-29T02:04:49.246Z,56.70
2022-07-29T02:07:20.268Z,57.07
2022-07-29T02:09:48.916Z,56.98
2022-07-29T02:12:18.657Z,57.15
2022-07-29T02:14:48.779Z,56.94
2022-07-29T02:17:22.658Z,57.13
2022-07-29T02:19:50.864Z,57.20
2022-07-29T02:22:20.654Z,58.17
2022-07-29T02:24:49.787Z,58.60
2022-07-29T02:27:18.294Z,59.00
2022-07-29T02:29:47.603Z,59.21
2022-07-29T02:32:15.703Z,59.04
2022-07-29T02:34:43.836Z,59.13
2022-07-29T02:37:12.199Z,59.58
2022-07-29T02:39:42.007Z,59.68
2022-07-29T02:42:12.537Z,59.49
2022-07-29T02:44:39.399Z,59.41
2022-07-29T02:47:14.538Z,58.91
2022-07-29T02:49:53.666Z,59.27
2022-07-29T02:52:28.579Z,58.94
2022-07-29T02:55:03.174Z,58.60
2022-07-29T02:57:54.061Z,58.27
2022-07-29T03:00:24.741Z,58.13
2022-07-29T03:02:54.796Z,59.14
2022-07-29T03:05:23.426Z,59.17
2022-07-29T03:07:56.803Z,58.70
2022-07-29T03:10:24.489Z,58.61
2022-07-29T03:12:51.548Z,58.97
2022-07-29T03:15:19.177Z,59.06
2022-07-29T03:17:47.222Z,59.35
2022-07-29T03:20:14.383Z,60.03
2022-07-29T03:22:47.613Z,60.30
2022-07-29T03:25:16.288Z,60.92
2022-07-29T03:27:43.781Z,61.27
2022-07-29T03:30:11.662Z,61.00
2022-07-29T03:32:39.220Z,61.19
2022-07-29T03:35:07.453Z,61.53
2022-07-29T03:37:34.513Z,61.72
2022-07-29T03:40:03.921Z,61.93
2022-07-29T03:42:34.500Z,62.08
2022-07-29T03:45:08.267Z,61.21
2022-07-29T03:47:49.904Z,59.89
2022-07-29T03:50:20.277Z,59.81
2022-07-29T03:52:47.662Z,59.35
2022-07-29T03:55:15.145Z,58.64
2022-07-29T03:57:42.725Z,58.16
2022-07-29T04:00:10.453Z,57.69
2022-07-29T04:02:38.994Z,57.53
2022-07-29T04:05:05.819Z,57.08
2022-07-29T04:07:32.497Z,56.96
2022-07-29T04:09:59.094Z,56.32
2022-07-29T04:12:25.815Z,56.38
2022-07-29T04:14:52.326Z,56.32
2022-07-29T04:17:18.849Z,56.02
2022-07-29T04:19:45.352Z,55.79
2022-07-29T04:22:11.868Z,56.15
2022-07-29T04:24:38.542Z,56.20
2022-07-29T04:27:05.136Z,56.26
2022-07-29T04:29:31.620Z,56.25
2022-07-29T04:31:58.096Z,56.12
2022-07-29T04:34:28.211Z,55.99
2022-07-29T04:36:54.991Z,55.85
2022-07-29T04:39:23.224Z,55.93
2022-07-29T04:41:51.163Z,55.91
2022-07-29T04:44:19.774Z,55.78
2022-07-29T04:46:46.688Z,55.79
2022-07-29T04:49:14.163Z,55.73
2022-07-29T04:51:40.959Z,55.65
2022-07-29T04:54:07.500Z,55.62
2022-07-29T04:56:34.009Z,55.76
2022-07-29T04:59:00.466Z,55.40
2022-07-29T05:01:27.007Z,55.46
2022-07-29T05:03:57.109Z,55.40
2022-07-29T05:06:26.811Z,55.42
2022-07-29T05:08:53.331Z,55.41
2022-07-29T05:11:22.475Z,55.15
2022-07-29T05:13:50.579Z,55.23
2022-07-29T05:16:17.105Z,54.91
2022-07-29T05:18:43.623Z,54.95
2022-07-29T05:21:10.248Z,54.80
2022-07-29T05:23:36.729Z,54.75
2022-07-29T05:26:03.386Z,54.76
2022-07-29T05:28:30.050Z,54.55
2022-07-29T05:30:57.249Z,54.64
2022-07-29T05:33:34.969Z,54.65
2022-07-29T05:36:03.000Z,54.54
2022-07-29T05:38:29.705Z,54.76
2022-07-29T05:40:58.562Z,54.57
2022-07-29T05:43:25.472Z,54.50
2022-07-29T05:45:52.069Z,54.82
2022-07-29T05:48:18.758Z,54.80
2022-07-29T05:50:45.357Z,54.77
2022-07-29T05:53:19.059Z,54.67
2022-07-29T05:55:47.388Z,54.67
2022-07-29T05:58:13.982Z,54.23
2022-07-29T06:00:40.987Z,53.85
2022-07-29T06:03:10.820Z,53.77
2022-07-29T06:05:37.684Z,53.02
2022-07-29T06:08:07.967Z,52.95
2022-07-29T06:10:37.499Z,53.01
2022-07-29T06:13:04.106Z,53.37
2022-07-29T06:15:30.623Z,53.03
2022-07-29T06:18:00.578Z,53.46
2022-07-29T06:20:32.857Z,52.63
2022-07-29T06:23:00.160Z,52.83
2022-07-29T06:25:28.342Z,52.39
2022-07-29T06:27:54.949Z,52.40
2022-07-29T06:33:36.061Z,52.00
2022-07-29T06:36:05.194Z,52.37
2022-07-29T06:38:34.321Z,52.23
2022-07-29T06:41:13.166Z,52.30
2022-07-29T06:43:42.649Z,52.41
2022-07-29T06:46:19.743Z,52.01
2022-07-29T06:48:48.381Z,52.10
2022-07-29T06:51:15.505Z,53.04
2022-07-29T06:53:58.213Z,53.40
2022-07-29T06:56:27.386Z,53.32
2022-07-29T06:58:53.926Z,52.64
2022-07-29T07:01:20.971Z,53.06
2022-07-29T07:03:48.591Z,53.18
2022-07-29T07:06:15.395Z,53.62
2022-07-29T07:08:42.047Z,53.79
2022-07-29T07:11:09.224Z,53.39
2022-07-29T07:13:36.619Z,53.63
2022-07-29T07:16:04.271Z,53.61
2022-07-29T07:18:31.243Z,53.95
2022-07-29T07:20:58.623Z,54.21
2022-07-29T07:23:25.747Z,54.77
2022-07-29T07:25:52.672Z,55.31
2022-07-29T07:28:19.662Z,57.19
2022-07-29T07:30:51.840Z,59.69
2022-07-29T07:33:18.546Z,60.72
2022-07-29T07:35:45.439Z,62.02
2022-07-29T07:38:12.043Z,61.58
2022-07-29T07:40:38.579Z,61.92
2022-07-29T07:43:05.402Z,61.68
2022-07-29T07:45:33.987Z,63.32
2022-07-29T07:48:01.549Z,63.04
2022-07-29T07:50:28.326Z,63.03
2022-07-29T07:52:59.802Z,63.60
2022-07-29T07:55:27.364Z,62.64
2022-07-29T07:57:54.717Z,62.01
2022-07-29T08:00:23.601Z,61.11
2022-07-29T08:02:51.064Z,60.22
2022-07-29T08:05:18.771Z,60.02
2022-07-29T08:07:48.695Z,59.90
2022-07-29T08:10:36.726Z,59.80
2022-07-29T08:13:07.754Z,60.35
2022-07-29T08:15:34.572Z,60.68
2022-07-29T08:18:07.911Z,60.82
2022-07-29T08:20:36.543Z,60.23
2022-07-29T08:23:03.958Z,60.80
2022-07-29T08:25:30.631Z,62.88
2022-07-29T08:27:57.480Z,65.21
2022-07-29T08:30:24.079Z,66.47
2022-07-29T08:32:55.082Z,65.83
2022-07-29T08:35:23.369Z,66.31
2022-07-29T08:37:50.062Z,66.57
2022-07-29T08:40:16.623Z,66.93
2022-07-29T08:42:43.183Z,67.88
2022-07-29T08:45:10.259Z,67.32
2022-07-29T08:47:40.912Z,67.22
2022-07-29T08:50:09.097Z,66.25
2022-07-29T08:52:40.851Z,64.59
2022-07-29T08:55:09.723Z,64.73
2022-07-29T08:57:37.106Z,64.48
2022-07-29T09:00:11.688Z,63.76
2022-07-29T09:02:46.809Z,63.26
2022-07-29T09:05:15.076Z,63.08
2022-07-29T09:07:44.209Z,63.03
2022-07-29T09:10:11.100Z,63.41
2022-07-29T09:12:38.273Z,63.61
2022-07-29T09:15:05.471Z,63.16
2022-07-29T09:17:46.277Z,63.92
2022-07-29T09:20:15.353Z,65.03
2022-07-29T09:22:42.444Z,65.15
2022-07-29T09:25:09.578Z,65.14
2022-07-29T09:27:36.608Z,64.79
2022-07-29T09:30:13.364Z,63.91
2022-07-29T09:33:02.240Z,64.35
2022-07-29T09:35:29.582Z,63.46
2022-07-29T09:37:56.773Z,63.74
2022-07-29T09:40:28.810Z,64.79
2022-07-29T09:42:58.617Z,65.25
2022-07-29T09:45:35.194Z,64.48
2022-07-29T09:48:19.507Z,63.54
2022-07-29T09:50:49.320Z,63.24
2022-07-29T09:53:31.319Z,62.30
2022-07-29T09:55:58.065Z,61.22
2022-07-29T09:58:24.640Z,61.57
2022-07-29T10:00:52.888Z,63.63
2022-07-29T10:03:20.279Z,66.02
2022-07-29T10:05:47.597Z,65.43
2022-07-29T10:08:14.199Z,63.58
2022-07-29T10:10:43.085Z,64.41
2022-07-29T10:13:16.202Z,62.72
2022-07-29T10:15:46.773Z,62.22
2022-07-29T10:18:15.082Z,61.27
2022-07-29T10:20:42.310Z,60.97
2022-07-29T10:23:10.050Z,62.38
2022-07-29T10:25:36.581Z,62.67
2022-07-29T10:28:03.797Z,62.39
2022-07-29T10:30:30.521Z,61.51
2022-07-29T10:33:27.193Z,62.31
2022-07-29T10:36:09.584Z,61.65
2022-07-29T10:38:53.386Z,61.65
2022-07-29T10:41:27.260Z,61.02
2022-07-29T10:44:00.686Z,61.07
2022-07-29T10:46:28.810Z,60.97
2022-07-29T10:49:17.238Z,61.40
2022-07-29T10:51:58.791Z,61.18
2022-07-29T10:54:42.548Z,61.16
2022-07-29T10:57:17.674Z,60.43
2022-07-29T10:59:46.589Z,58.53
2022-07-29T11:02:46.562Z,57.57
2022-07-29T11:05:14.683Z,59.05
2022-07-29T11:08:19.918Z,57.00
2022-07-29T11:10:48.583Z,55.51
2022-07-29T11:13:44.648Z,51.16
2022-07-29T11:16:16.017Z,46.92
2022-07-29T11:19:14.251Z,44.65
2022-07-29T11:21:54.953Z,43.56
2022-07-29T11:24:31.853Z,43.85
2022-07-29T11:27:17.981Z,47.01
2022-07-29T11:29:57.342Z,45.77
2022-07-29T11:32:29.340Z,47.52
2022-07-29T11:35:19.017Z,48.10
2022-07-29T11:40:34.054Z,42.43
2022-07-29T11:43:00.611Z,42.04
2022-07-29T11:45:45.602Z,43.00
2022-07-29T11:48:29.493Z,43.69
2022-07-29T11:50:59.533Z,43.92
2022-07-29T11:53:29.136Z,42.65
2022-07-29T11:56:00.418Z,43.11
2022-07-29T11:58:28.343Z,43.33
2022-07-29T12:00:56.323Z,43.43
2022-07-29T12:06:17.928Z,44.54
2022-07-29T12:07:03.269Z,47.17
2022-07-29T12:09:08.086Z,44.14
2022-07-29T12:11:41.017Z,42.98
2022-07-29T12:14:07.474Z,42.08
2022-07-29T12:16:38.252Z,41.18
2022-07-29T12:19:05.872Z,40.49
2022-07-29T12:21:53.645Z,41.48
2022-07-29T12:24:23.363Z,42.44
2022-07-29T12:26:54.774Z,42.56
2022-07-29T12:29:34.844Z,40.58
2022-07-29T12:32:05.225Z,39.44
2022-07-29T12:34:33.223Z,39.40
2022-07-29T12:36:59.956Z,38.45
2022-07-29T12:39:28.935Z,36.79
2022-07-29T12:42:04.464Z,38.33
2022-07-29T12:44:48.912Z,38.21
2022-07-29T12:47:16.894Z,38.36
2022-07-29T12:49:43.515Z,38.66
2022-07-29T12:52:33.270Z,37.89
2022-07-29T12:55:00.732Z,37.41
2022-07-29T12:57:28.223Z,36.15
2022-07-29T13:00:12.040Z,35.34
2022-07-29T13:02:39.422Z,35.54
2022-07-29T13:05:07.385Z,37.79
2022-07-29T13:07:54.951Z,38.62
2022-07-29T13:10:24.334Z,40.30
2022-07-29T13:13:08.985Z,39.43
2022-07-29T13:15:36.312Z,37.97
2022-07-29T13:18:03.187Z,36.13
2022-07-29T13:20:33.055Z,37.07
2022-07-29T13:23:02.870Z,36.92
2022-07-29T13:25:32.792Z,36.25
2022-07-29T13:28:00.761Z,36.66
2022-07-29T13:30:27.369Z,37.24
2022-07-29T13:32:53.970Z,37.26
2022-07-29T13:35:21.382Z,37.55
2022-07-29T13:37:48.139Z,37.34
2022-07-29T13:40:15.158Z,37.26
2022-07-29T13:42:42.281Z,37.06
2022-07-29T13:45:10.506Z,38.99
2022-07-29T13:47:37.380Z,42.36
2022-07-29T13:50:06.446Z,43.13
2022-07-29T13:52:34.358Z,40.29
2022-07-29T13:55:00.973Z,38.14
2022-07-29T13:57:28.165Z,37.64
2022-07-29T13:59:54.759Z,38.19
2022-07-29T14:02:21.565Z,38.24
2022-07-29T14:04:53.074Z,38.90
2022-07-29T14:07:19.616Z,38.99
2022-07-29T14:09:46.224Z,39.81
2022-07-29T14:12:12.917Z,38.37
2022-07-29T14:14:39.596Z,39.43
2022-07-29T14:17:07.614Z,40.43
2022-07-29T14:19:38.979Z,40.75
2022-07-29T14:22:07.278Z,40.14
2022-07-29T14:24:37.380Z,38.99
2022-07-29T14:27:05.509Z,37.78
2022-07-29T14:29:37.331Z,38.23
2022-07-29T14:32:06.860Z,37.72
2022-07-29T14:34:34.334Z,37.92
2022-07-29T14:37:00.821Z,36.78
2022-07-29T14:39:31.707Z,37.31
2022-07-29T14:41:59.183Z,36.22
2022-07-29T14:44:31.793Z,36.16
2022-07-29T14:47:01.540Z,35.98
2022-07-29T14:49:34.422Z,36.21
2022-07-29T14:52:01.299Z,35.16
2022-07-29T14:54:28.067Z,34.76
2022-07-29T14:56:57.803Z,35.37
2022-07-29T14:59:24.549Z,34.95
2022-07-29T15:01:51.138Z,34.89
2022-07-29T15:04:17.771Z,35.96
2022-07-29T15:06:44.771Z,39.08
2022-07-29T15:09:11.521Z,39.51
2022-07-29T15:11:38.788Z,37.72
2022-07-29T15:14:06.656Z,38.56
2022-07-29T15:16:33.622Z,39.86
2022-07-29T15:19:01.210Z,38.80
2022-07-29T15:21:28.226Z,37.72
2022-07-29T15:23:54.831Z,38.83
2022-07-29T15:26:21.385Z,37.54
2022-07-29T15:28:49.166Z,37.11
2022-07-29T15:31:16.164Z,36.38
2022-07-29T15:33:42.783Z,38.54
2022-07-29T15:36:09.575Z,38.64
2022-07-29T15:38:36.261Z,38.53
2022-07-29T15:41:08.719Z,39.17
2022-07-29T15:43:36.211Z,39.57
2022-07-29T15:46:21.565Z,40.71
2022-07-29T15:48:48.458Z,40.61
2022-07-29T15:51:15.374Z,40.11
2022-07-29T15:53:42.001Z,40.10
2022-07-29T15:56:08.572Z,40.32
2022-07-29T15:58:35.182Z,39.03
2022-07-29T16:01:02.123Z,38.22
2022-07-29T16:03:29.991Z,38.57
2022-07-29T16:05:57.205Z,38.54
2022-07-29T16:08:23.750Z,38.26
2022-07-29T16:10:50.383Z,37.58
2022-07-29T16:13:18.985Z,37.25
2022-07-29T16:16:02.607Z,38.15
2022-07-29T16:18:30.490Z,37.78
2022-07-29T16:20:57.239Z,37.11
2022-07-29T16:23:24.691Z,36.35
2022-07-29T16:25:59.707Z,35.95
2022-07-29T16:28:27.019Z,36.45
2022-07-29T16:30:53.530Z,38.10
2022-07-29T16:33:20.023Z,37.50
2022-07-29T16:35:46.921Z,38.42
2022-07-29T16:38:13.498Z,38.65
2022-07-29T16:40:40.115Z,38.02
2022-07-29T16:43:06.760Z,38.38
2022-07-29T16:45:45.063Z,38.89
2022-07-29T16:48:14.275Z,38.57
2022-07-29T16:50:41.468Z,38.96
2022-07-29T16:53:10.730Z,38.80
2022-07-29T16:55:37.416Z,37.97
2022-07-29T16:58:04.092Z,37.16
2022-07-29T17:00:30.908Z,36.97
2022-07-29T17:02:57.529Z,37.52
2022-07-29T17:05:24.246Z,37.00
2022-07-29T17:07:50.839Z,36.38
2022-07-29T17:10:17.566Z,35.86
2022-07-29T17:12:45.167Z,36.44
2022-07-29T17:15:12.841Z,36.25
2022-07-29T17:17:55.493Z,36.67
2022-07-29T17:20:23.457Z,36.43
2022-07-29T17:22:50.063Z,36.46
2022-07-29T17:25:20.312Z,36.51
2022-07-29T17:27:49.725Z,36.75
2022-07-29T17:30:16.893Z,36.66
2022-07-29T17:32:43.477Z,37.10
2022-07-29T17:35:29.152Z,37.25
2022-07-29T17:37:55.830Z,37.63
2022-07-29T17:40:22.793Z,37.98
2022-07-29T17:42:49.739Z,37.56
2022-07-29T17:45:16.404Z,37.70
2022-07-29T17:47:42.926Z,38.12
2022-07-29T17:50:10.124Z,38.50
2022-07-29T17:52:37.696Z,39.17
2022-07-29T17:58:36.369Z,39.58
2022-07-29T18:01:03.813Z,39.88
2022-07-29T18:03:30.357Z,40.24
2022-07-29T18:05:56.920Z,40.56
2022-07-29T18:08:28.053Z,41.71
2022-07-29T18:10:54.944Z,42.01
2022-07-29T18:13:21.714Z,42.52
2022-07-29T18:15:48.569Z,43.18
2022-07-29T18:18:16.069Z,43.70
2022-07-29T18:20:43.416Z,43.73
2022-07-29T18:23:10.419Z,43.82
2022-07-29T18:25:37.454Z,43.89
2022-07-29T18:28:04.358Z,44.25
2022-07-29T18:30:33.801Z,44.46
2022-07-29T18:33:20.907Z,44.67
2022-07-29T18:35:49.770Z,45.11
2022-07-29T18:38:19.314Z,45.43
2022-07-29T18:40:46.355Z,45.44
2022-07-29T18:43:13.675Z,45.43
2022-07-29T18:45:40.358Z,45.58
2022-07-29T18:48:12.999Z,45.79
2022-07-29T18:50:40.900Z,46.08
2022-07-29T18:53:08.023Z,46.37
2022-07-29T18:55:34.659Z,46.42
2022-07-29T18:58:01.501Z,46.34
2022-07-29T19:00:28.212Z,46.65
2022-07-29T19:02:55.620Z,46.84
2022-07-29T19:05:23.236Z,46.96
2022-07-29T19:07:49.839Z,47.25
2022-07-29T19:10:16.811Z,47.39
2022-07-29T19:12:43.414Z,47.63
2022-07-29T19:15:10.790Z,47.81
2022-07-29T19:17:38.639Z,47.91
2022-07-29T19:20:06.430Z,48.22
2022-07-29T19:22:34.114Z,48.38
2022-07-29T19:25:00.826Z,48.71
2022-07-29T19:27:27.391Z,48.66
2022-07-29T19:29:55.844Z,49.18
2022-07-29T19:32:26.029Z,49.52
2022-07-29T19:35:11.807Z,49.60
2022-07-29T19:37:38.309Z,49.41
2022-07-29T19:40:06.188Z,49.69
2022-07-29T19:42:33.185Z,49.32
2022-07-29T19:44:59.992Z,49.77
2022-07-29T19:47:26.703Z,49.91
2022-07-29T19:49:53.378Z,50.30
2022-07-29T19:52:20.021Z,50.47
2022-07-29T19:54:49.135Z,51.15
2022-07-29T19:57:15.625Z,52.19
2022-07-29T19:59:42.232Z,52.91
2022-07-29T20:02:12.142Z,53.39
2022-07-29T20:04:39.486Z,53.40
2022-07-29T20:07:06.936Z,53.90
2022-07-29T20:09:33.741Z,54.34
2022-07-29T20:12:00.605Z,54.24
2022-07-29T20:14:27.169Z,54.05
2022-07-29T20:16:56.206Z,54.98
2022-07-29T20:19:22.751Z,55.39
2022-07-29T20:21:50.730Z,55.47
2022-07-29T20:24:18.534Z,55.42
2022-07-29T20:26:45.012Z,55.51
2022-07-29T20:29:11.562Z,55.45
2022-07-29T20:31:38.182Z,55.15
2022-07-29T20:34:04.785Z,55.26
2022-07-29T20:36:31.550Z,55.01
2022-07-29T20:38:59.964Z,55.19
2022-07-29T20:41:27.092Z,55.18
2022-07-29T20:43:53.587Z,55.40
2022-07-29T20:46:20.085Z,55.33
2022-07-29T20:48:47.254Z,55.67
2022-07-29T20:51:14.489Z,55.48
2022-07-29T20:53:41.879Z,56.09
2022-07-29T20:56:08.583Z,56.75
2022-07-29T20:58:36.281Z,56.86
2022-07-29T21:01:03.939Z,56.70
2022-07-29T21:03:30.585Z,56.86
2022-07-29T21:05:57.132Z,57.03
2022-07-29T21:08:23.629Z,57.35
2022-07-29T21:10:50.422Z,57.06
2022-07-29T21:13:17.059Z,57.40
2022-07-29T21:15:46.289Z,57.43
2022-07-29T21:18:30.698Z,57.28
2022-07-29T21:21:02.503Z,57.30
2022-07-29T21:23:30.053Z,57.32
2022-07-29T21:25:57.460Z,56.80
2022-07-29T21:28:26.904Z,57.23
2022-07-29T21:30:54.746Z,56.99
2022-07-29T21:33:21.520Z,57.24
2022-07-29T21:38:35.428Z,57.17
2022-07-29T21:41:02.535Z,57.12
2022-07-29T21:43:29.215Z,56.70
2022-07-29T21:45:57.185Z,56.55
2022-07-29T21:48:25.110Z,56.13
2022-07-29T21:50:52.154Z,56.45
2022-07-29T21:53:21.967Z,56.95
2022-07-29T21:55:53.650Z,57.78
2022-07-29T21:58:22.792Z,57.73
2022-07-29T22:00:49.350Z,58.30
2022-07-29T22:03:16.208Z,58.48
2022-07-29T22:05:42.891Z,59.11
2022-07-29T22:08:09.550Z,59.04
2022-07-29T22:10:36.183Z,59.04
2022-07-29T22:13:03.266Z,58.66
2022-07-29T22:15:30.571Z,59.04
2022-07-29T22:17:58.777Z,59.50
2022-07-29T22:20:25.664Z,58.96
2022-07-29T22:22:52.343Z,58.91
2022-07-29T22:25:19.508Z,58.75
2022-07-29T22:27:46.464Z,58.44
2022-07-29T22:30:13.954Z,58.57
2022-07-29T22:32:40.762Z,59.18
2022-07-29T22:35:07.651Z,59.62
2022-07-29T22:37:34.309Z,59.87
2022-07-29T22:40:00.922Z,60.19
2022-07-29T22:42:27.507Z,59.67
2022-07-29T22:44:54.139Z,59.41
2022-07-29T22:47:45.963Z,59.88
2022-07-29T22:50:07.601Z,60.39
2022-07-29T22:52:34.106Z,61.17
2022-07-29T22:55:00.828Z,61.37
2022-07-29T22:57:27.389Z,61.10
2022-07-29T22:59:53.986Z,61.43
2022-07-29T23:02:20.564Z,61.93
2022-07-29T23:04:47.495Z,61.92
2022-07-29T23:07:13.975Z,62.59
2022-07-29T23:09:40.574Z,63.05
2022-07-29T23:12:07.428Z,63.33
2022-07-29T23:14:34.066Z,64.06
2022-07-29T23:17:00.846Z,64.46
2022-07-29T23:19:27.627Z,64.95
2022-07-29T23:21:54.129Z,65.22
2022-07-29T23:24:20.758Z,65.19
2022-07-29T23:26:48.336Z,65.39
2022-07-29T23:29:14.829Z,65.76
2022-07-29T23:31:41.792Z,66.03
2022-07-29T23:34:09.284Z,66.03
2022-07-29T23:36:35.883Z,65.95
2022-07-29T23:39:02.644Z,66.22
2022-07-29T23:41:30.558Z,66.80
2022-07-29T23:44:03.514Z,66.24
2022-07-29T23:46:30.161Z,66.92
2022-07-29T23:48:56.866Z,66.97
2022-07-29T23:51:23.423Z,67.54
2022-07-29T23:53:53.958Z,67.75
